DABC/CZL METAR and TAF weather

Enter ICAO airport designator
Station Type Date Time Source
DABC METAR 2018/10/19 15:30 UTC NOAA

DABC 191530Z VRB02KT 9999 FEW026 SCT200 22/14 Q1016


Station Type Date Time Source
DABC Decoded METAR 2018/10/19 15:30 UTC NOAA

Constantine, Algeria (DABC) 36-17N 006-37E 694M
Oct 19, 2018 - 11:30 AM EDT / 2018.10.19 1530 UTC
Wind: Variable at 2 MPH (2 KT):0
Visibility: greater than 7 mile(s):0
Sky conditions: partly cloudy
Temperature: 71 F (22 C)
Dew Point: 57 F (14 C)
Relative Humidity: 60%
Pressure (altimeter): 30.00 in. Hg (1016 hPa)
ob: DABC 191530Z VRB02KT 9999 FEW026 SCT200 22/14 Q1016
cycle: 15

Station Type Date Time Source
DABC TAF 2018/10/19 12:33 UTC NOAA

TAF DABC 191100Z 1912/2012 06012KT 9000 SCT016 SCT090
TEMPO 1912/1920 FEW020CB PROB30
TEMPO 1914/1918 4000 -TSRA
BECMG 1920/1922 VRB02KT PROB30
TEMPO 2000/2008 2000 BR BKN010
BECMG 2010/2012 08012KT


Example: see airport list